Latest Weather Observations for Wadeye (Port Keats)

IDD60801

Issued at 6:01 am CST Monday 2 March 2015 (issued every 30 minutes, with the page automatically refreshed every 10 minutes)

About weather observations | Map of weather stations | Latest weather observations for NT | Other Formats
Station Details ID: 014948 Name: PORT KEATS AIRPORT Lat: -14.25 Lon: 129.53 Height: 28.0 m
Data from the previous 72 hours. | See also: Recent months at Wadeye (Port Keats)
Date/Time
CST
Temp
°C
App
Temp
°C
Dew
Point
Rel
Hum
%
Delta-T
°C
Wind Press
QNH
hPa
Press
MSL
hPa
Rain
since 9 am
mm
Dir
 
Spd
km/h
Gust
km/h
Spd
kts
Gust
kts
02/06:00am 25.4 31.7 24.7 96 0.5 CALM 0 0 0 0 1004.6 1004.4 41.4
02/05:30am 25.9 32.1 25.2 96 0.5 SE 2 6 1 3 1004.4 1004.2 41.4
02/05:00am 25.9 31.3 25.2 96 0.5 ESE 6 7 3 4 1004.4 1004.2 41.4
02/04:30am 26.0 32.6 25.3 96 0.5 CALM 0 0 0 0 1004.4 1004.2 41.4
02/04:00am 26.2 32.8 25.3 95 0.6 CALM 0 0 0 0 1004.1 1003.9 41.4
02/03:30am 26.3 33.0 25.4 95 0.6 CALM 0 0 0 0 1004.3 1004.1 41.4
02/03:00am 26.5 32.2 25.6 95 0.6 ESE 6 7 3 4 1004.8 1004.6 41.4
02/02:30am 26.3 31.8 25.6 96 0.5 ESE 7 9 4 5 1005.2 1005.0 41.4
02/02:00am 26.2 33.0 25.5 96 0.5 CALM 0 0 0 0 1005.1 1004.9 41.4
02/01:30am 26.4 33.3 25.7 96 0.5 CALM 0 0 0 0 1005.4 1005.2 41.4
02/01:00am 26.2 33.0 25.5 96 0.5 CALM 0 0 0 0 1005.6 1005.4 41.4
02/12:30am 25.7 32.0 24.8 95 0.6 CALM 0 0 0 0 1006.2 1006.0 41.4
02/12:00am 26.0 32.6 25.3 96 0.5 CALM 0 0 0 0 1006.6 1006.4 41.4
 
Date/Time
CST
Temp
°C
App
Temp
°C
Dew
Point
Rel
Hum
%
Delta-T
°C
Wind Press
QNH
hPa
Press
MSL
hPa
Rain
since 9 am
mm
Dir
 
Spd
km/h
Gust
km/h
Spd
kts
Gust
kts
01/11:30pm 26.0 32.6 25.3 96 0.5 CALM 0 0 0 0 1007.2 1007.0 41.4
01/11:00pm 25.6 31.9 24.7 95 0.6 CALM 0 0 0 0 1006.9 1006.7 41.4
01/10:30pm 25.6 31.7 24.4 93 0.8 CALM 0 0 0 0 1006.5 1006.3 41.4
01/10:00pm 25.9 32.4 25.0 95 0.6 CALM 0 0 0 0 1006.8 1006.6 41.4
01/09:30pm 25.3 31.3 24.3 94 0.7 CALM 0 0 0 0 1006.7 1006.5 41.4
01/09:00pm 25.6 31.2 24.2 92 1.0 ESE 2 6 1 3 1006.1 1005.9 41.4
01/08:30pm 25.6 31.6 24.2 92 1.0 CALM 0 0 0 0 1005.3 1005.1 41.4
01/08:00pm 25.4 31.1 23.8 91 1.1 CALM 0 0 0 0 1004.8 1004.6 41.4
01/07:30pm 25.7 31.0 23.7 89 1.4 ENE 2 6 1 3 1004.6 1004.4 41.4
01/07:00pm 25.6 31.2 23.5 88 1.4 CALM 0 0 0 0 1004.5 1004.3 41.4
01/06:30pm 25.8 31.3 24.0 90 1.2 W 2 6 1 3 1004.0 1003.8 41.4
01/06:00pm 25.6 29.7 22.9 85 1.8 NE 6 7 3 4 1003.7 1003.5 41.4
01/05:30pm 25.9 29.1 23.0 84 2.0 NNE 11 15 6 8 1003.9 1003.7 41.4
01/05:00pm 25.9 29.8 24.3 91 1.1 N 11 13 6 7 1004.3 1004.1 41.4
01/04:30pm 25.4 30.9 24.0 92 1.0 W 2 7 1 4 1003.8 1003.6 41.4
01/04:00pm 25.3 30.1 24.1 93 0.8 N 6 9 3 5 1003.9 1003.7 41.4
01/03:30pm 25.5 30.5 23.9 91 1.1 ESE 4 9 2 5 1004.2 1004.0 41.2
01/03:00pm 24.6 28.4 23.4 93 0.8 NNE 9 13 5 7 1004.7 1004.5 40.2
01/02:30pm 25.3 25.9 23.5 90 1.2 NNW 26 33 14 18 1005.4 1005.2 24.4
01/02:15pm 24.9 24.6 23.3 91 1.1 NW 30 48 16 26 1004.9 1004.7 17.8
01/02:00pm 25.0 27.3 22.7 87 1.6 WNW 15 24 8 13 1005.0 1004.8 10.0
01/01:30pm 29.9 33.0 24.1 71 4.0 WSW 15 24 8 13 1005.4 1005.2 0.0
01/01:00pm 32.6 37.1 25.2 65 5.2 W 11 19 6 10 1005.7 1005.5 0.0
01/12:30pm 32.8 37.7 25.3 64 5.3 W 9 13 5 7 1006.0 1005.8 0.0
01/12:00pm 33.1 38.4 25.9 66 5.2 NW 9 17 5 9 1006.6 1006.4 0.0
01/11:30am 32.1 37.2 24.9 65 5.1 WSW 7 13 4 7 1006.8 1006.6 0.0
01/11:00am 32.3 37.2 24.6 64 5.4 NW 7 11 4 6 1007.1 1006.9 0.0
01/10:30am 31.2 36.0 25.1 70 4.3 NW 9 13 5 7 1007.6 1007.4 0.0
01/10:00am 31.3 36.6 25.2 70 4.3 WSW 7 13 4 7 1007.8 1007.6 0.0
01/09:30am 30.5 36.2 25.6 75 3.5 N 6 7 3 4 1007.5 1007.3 0.0
01/09:00am 29.8 35.6 25.8 79 2.8 NNE 6 9 3 5 1007.3 1007.1 0.0
01/08:30am 29.4 36.0 25.8 81 2.6 E 2 7 1 4 1007.0 1006.8 0.0
01/08:00am 27.8 34.6 25.6 88 1.6 CALM 0 0 0 0 1006.7 1006.5 0.0
01/07:30am 26.3 32.6 25.4 95 0.6 SSE 2 6 1 3 1006.4 1006.2 0.0
01/07:00am 25.7 32.0 24.7 94 0.7 CALM 0 0 0 0 1006.1 1005.9 0.0
01/06:30am 26.0 31.4 25.1 95 0.6 SE 6 9 3 5 1005.6 1005.4 0.0
01/06:00am 25.8 32.1 24.8 94 0.7 CALM 0 0 0 0 1004.9 1004.7 0.0
01/05:30am 26.0 32.5 25.0 94 0.7 CALM 0 0 0 0 1004.3 1004.1 0.0
01/05:00am 26.1 32.2 25.1 94 0.7 SSW 2 7 1 4 1004.4 1004.2 0.0
01/04:30am 26.1 32.4 24.7 92 1.0 CALM 0 0 0 0 1004.8 1004.6 0.0
01/04:00am 26.6 32.0 25.4 93 0.8 S 7 9 4 5 1005.1 1004.9 0.0
01/03:30am 26.6 33.3 25.4 93 0.8 CALM 0 0 0 0 1005.0 1004.8 0.0
01/03:00am 26.5 32.1 25.5 94 0.7 SSE 6 9 3 5 1005.3 1005.1 0.0
01/02:30am 26.5 33.0 25.1 92 1.0 CALM 0 0 0 0 1005.5 1005.3 0.0
01/02:00am 26.9 33.2 25.3 91 1.1 SSE 2 6 1 3 1005.7 1005.5 0.0
01/01:30am 27.0 33.6 25.2 90 1.3 CALM 0 0 0 0 1005.9 1005.7 0.0
01/01:00am 27.6 34.4 25.6 89 1.4 CALM 0 0 0 0 1005.9 1005.7 0.0
01/12:30am 27.5 34.0 25.1 87 1.7 CALM 0 0 0 0 1006.1 1005.9 0.0
01/12:00am 28.2 34.0 25.2 84 2.1 NNW 4 7 2 4 1006.9 1006.7 0.0
 
Date/Time
CST
Temp
°C
App
Temp
°C
Dew
Point
Rel
Hum
%
Delta-T
°C
Wind Press
QNH
hPa
Press
MSL
hPa
Rain
since 9 am
mm
Dir
 
Spd
km/h
Gust
km/h
Spd
kts
Gust
kts
28/11:30pm 28.2 33.6 25.4 85 2.0 N 7 13 4 7 1007.2 1007.0 0.0
28/11:00pm 28.1 34.4 25.3 85 2.0 W 2 7 1 4 1007.9 1007.7 0.0
28/10:30pm 27.6 33.8 25.2 87 1.7 SW 2 7 1 4 1007.7 1007.5 0.0
28/10:00pm 28.3 33.6 24.9 82 2.4 WNW 6 7 3 4 1007.2 1007.0 0.0
28/09:30pm 27.8 33.0 24.8 84 2.1 SW 6 6 3 3 1007.5 1007.3 0.0
28/09:00pm 28.7 33.9 25.1 81 2.5 NNW 7 9 4 5 1006.6 1006.4 0.0
28/08:30pm 28.3 33.3 24.5 80 2.7 W 6 9 3 5 1006.4 1006.2 0.0
28/08:00pm 28.6 33.5 24.4 78 2.9 W 6 9 3 5 1005.6 1005.4 0.0
28/07:30pm 29.3 34.4 24.0 73 3.7 WSW 4 7 2 4 1005.5 1005.3 0.0
28/07:00pm 30.2 34.8 24.1 70 4.2 WNW 7 13 4 7 1004.8 1004.6 0.0
28/06:30pm 31.4 35.8 24.5 67 4.8 WNW 9 15 5 8 1003.7 1003.4 0.0
28/06:00pm 31.5 35.6 24.6 67 4.9 WNW 11 20 6 11 1003.6 1003.3 0.0
28/05:30pm 31.8 35.6 24.7 66 5.0 NW 13 19 7 10 1003.8 1003.5 0.0
28/05:00pm 31.8 35.3 23.6 62 5.7 W 11 17 6 9 1004.2 1004.0 0.0
28/04:30pm 32.2 35.4 23.7 61 5.9 W 13 17 7 9 1004.5 1004.3 0.0
28/04:00pm 32.0 35.1 23.5 60 5.9 WNW 13 22 7 12 1004.6 1004.4 0.0
28/03:30pm 32.4 35.7 23.9 61 5.9 WNW 13 20 7 11 1005.0 1004.8 0.0
28/03:00pm 32.5 35.1 22.6 56 6.8 WNW 13 20 7 11 1005.2 1005.0 0.0
28/02:30pm 32.9 34.8 22.0 52 7.4 NW 15 20 8 11 1005.4 1005.2 0.0
28/02:00pm 32.3 33.9 21.5 53 7.3 W 15 20 8 11 1005.8 1005.6 0.0
28/01:30pm 32.4 35.0 21.9 54 7.2 W 11 20 6 11 1006.4 1006.2 0.0
28/01:00pm 32.1 35.8 23.9 62 5.7 W 11 19 6 10 1006.9 1006.7 0.0
28/12:30pm 32.0 35.1 22.1 55 6.8 WSW 9 13 5 7 1007.1 1006.9 0.0
28/12:00pm 31.2 34.9 22.5 60 6.0 W 7 13 4 7 1007.2 1007.0 0.0
28/11:30am 31.0 34.1 21.5 57 6.4 S 7 19 4 10 1007.2 1007.0 0.0
28/11:00am 30.2 33.2 21.3 59 6.0 SE 7 15 4 8 1007.2 1007.0 0.0
28/10:30am 29.3 31.2 21.3 62 5.4 ESE 13 19 7 10 1007.3 1007.1 0.0
28/10:00am 27.4 29.6 21.2 69 4.1 ESE 11 17 6 9 1007.4 1007.2 0.0
28/09:30am 26.2 30.2 21.4 75 3.2 SW 2 7 1 4 1007.8 1007.6 0.0
28/09:00am 25.0 27.7 20.7 77 2.8 S 7 13 4 7 1007.7 1007.5 0.0
28/08:30am 24.4 26.3 20.5 79 2.5 S 11 17 6 9 1008.5 1008.3 0.0
28/08:00am 24.2 23.6 20.5 80 2.4 SSE 24 35 13 19 1008.7 1008.5 0.0
28/07:30am 25.5 25.9 22.4 83 2.1 SE 24 41 13 22 1008.2 1008.0 0.0
28/07:00am 24.8 28.4 22.1 85 1.8 NE 6 7 3 4 1007.3 1007.1 0.0
28/06:30am 25.3 30.4 22.6 85 1.8 CALM 0 6 0 3 1006.9 1006.7 0.0
28/06:00am 25.4 28.6 22.3 83 2.1 SSE 9 15 5 8 1006.2 1006.0 0.0
28/05:30am 25.4 28.9 22.1 82 2.2 SW 7 11 4 6 1006.1 1005.9 0.0
28/05:00am 25.9 27.6 21.6 77 2.9 NNW 15 26 8 14 1006.5 1006.3 0.0
28/04:30am 25.9 29.4 22.2 80 2.5 NNW 7 11 4 6 1006.6 1006.4 0.0
28/04:00am 26.2 28.9 20.7 71 3.6 N 7 11 4 6 1006.7 1006.5 0.0
28/03:30am 26.7 28.2 21.2 72 3.7 NW 15 24 8 13 1006.2 1006.0 0.0
28/03:00am 28.2 32.8 24.2 79 2.8 W 7 11 4 6 1006.5 1006.3 0.0
28/02:30am 28.5 33.1 24.1 77 3.1 W 7 11 4 6 1006.7 1006.5 0.0
28/02:00am 28.8 32.8 24.4 77 3.1 NW 11 15 6 8 1006.6 1006.4 0.0
28/01:30am 28.7 33.6 24.7 79 2.8 WNW 7 15 4 8 1006.4 1006.2 0.0
28/01:00am 28.6 33.1 24.6 79 2.8 WNW 9 17 5 9 1006.1 1005.9 0.0
28/12:30am 28.6 33.1 24.6 79 2.8 WNW 9 17 5 9 1007.1 1006.9 0.0
28/12:00am 28.5 33.1 24.7 80 2.7 WNW 9 17 5 9 1007.9 1007.7 0.0
 
Date/Time
CST
Temp
°C
App
Temp
°C
Dew
Point
Rel
Hum
%
Delta-T
°C
Wind Press
QNH
hPa
Press
MSL
hPa
Rain
since 9 am
mm
Dir
 
Spd
km/h
Gust
km/h
Spd
kts
Gust
kts
27/11:30pm 28.4 33.3 24.6 80 2.7 NW 7 11 4 6 1008.3 1008.1 0.0
27/11:00pm 28.7 33.1 24.5 78 2.9 NW 9 11 5 6 1008.3 1008.1 0.0
27/10:30pm 28.7 33.6 24.7 79 2.8 NNW 7 11 4 6 1008.2 1008.0 0.0
27/10:00pm 28.5 33.4 24.7 80 2.7 NW 7 11 4 6 1007.7 1007.5 0.0
27/09:30pm 28.5 33.1 24.7 80 2.7 NW 9 11 5 6 1007.0 1006.8 0.0
27/09:00pm 28.3 33.4 24.1 78 2.9 WNW 4 9 2 5 1006.7 1006.5 0.0
27/08:30pm 28.3 32.9 24.1 78 2.9 NNW 7 11 4 6 1006.5 1006.3 0.0
27/08:00pm 28.9 33.2 24.2 76 3.3 NW 9 13 5 7 1005.6 1005.4 0.0
27/07:30pm 29.1 33.7 24.2 75 3.4 NNW 7 11 4 6 1005.1 1004.9 0.0
27/07:00pm 29.4 34.9 24.0 72 3.7 NW 2 7 1 4 1005.2 1005.0 0.0
27/06:30pm 29.6 34.0 23.5 69 4.2 WNW 6 9 3 5 1005.1 1004.9 0.0
27/06:00pm 30.0 33.8 23.4 67 4.6 WNW 9 17 5 9 1004.4 1004.2 0.0
27/05:30pm 30.4 33.3 23.8 68 4.6 WNW 15 22 8 12 1004.2 1004.0 0.0
27/05:00pm 31.3 35.1 23.4 63 5.5 W 9 13 5 7 1003.8 1003.5 0.0
27/04:30pm 31.4 34.7 23.2 61 5.7 WSW 11 17 6 9 1003.9 1003.6 0.0
27/04:00pm 30.8 33.5 22.9 62 5.4 W 13 20 7 11 1004.0 1003.7 0.0
27/03:30pm 30.5 34.0 22.9 64 5.2 W 9 15 5 8 1004.4 1004.2 0.0
27/03:00pm 31.8 35.1 23.9 63 5.5 WNW 13 20 7 11 1004.7 1004.5 0.0
27/02:30pm 30.9 33.3 22.2 59 5.9 WSW 13 19 7 10 1004.8 1004.6 0.0
27/02:00pm 31.7 34.2 23.2 60 5.9 WSW 15 22 8 12 1005.6 1005.4 0.0
27/01:30pm 31.2 34.3 24.8 69 4.5 WSW 17 24 9 13 1006.2 1006.0 0.0
27/01:00pm 31.1 34.2 24.2 66 4.8 W 15 24 8 13 1006.7 1006.5 0.0
27/12:30pm 31.2 34.4 24.3 66 4.8 WSW 15 24 8 13 1007.2 1007.0 0.0
27/12:00pm 31.3 34.5 24.4 66 4.8 WSW 15 24 8 13 1007.6 1007.4 0.0
27/11:30am 31.6 35.3 24.5 66 5.0 WSW 13 24 7 13 1007.9 1007.7 0.0
27/11:00am 30.6 34.4 24.7 71 4.1 W 13 19 7 10 1008.0 1007.8 0.0
27/10:30am 30.2 34.8 24.8 73 3.8 W 9 15 5 8 1008.0 1007.8 0.0
27/10:00am 30.7 34.9 24.8 71 4.1 WSW 11 15 6 8 1007.8 1007.6 0.0
27/09:30am 30.6 35.5 25.2 73 3.8 W 9 17 5 9 1007.9 1007.7 0.0
27/09:00am 29.9 35.4 25.6 78 3.0 W 7 11 4 6 1007.9 1007.7 0.0
27/08:30am 28.8 35.4 25.2 81 2.5 CALM 0 0 0 0 1007.6 1007.4 0.0
27/08:00am 27.5 34.1 25.3 88 1.5 CALM 0 0 0 0 1007.1 1006.9 0.0
27/07:30am 26.2 32.7 25.0 93 0.8 CALM 0 0 0 0 1006.8 1006.6 0.0
27/07:00am 26.1 32.4 24.7 92 1.0 CALM 0 0 0 0 1006.3 1006.1 0.0
27/06:30am 26.5 32.8 24.7 90 1.3 CALM 0 0 0 0 1005.9 1005.7 0.0

Other Formats:

Comma delimited format used in spreadsheet applications
http://www.bom.gov.au/fwo/IDD60801/IDD60801.95111.axf

JavaScript Object Notation format (JSON) in row-major order
http://www.bom.gov.au/fwo/IDD60801/IDD60801.95111.json